Amherst, Wisconsin
Current Conditions -  °F | °C
As of 5:55 PM on Sunday 25 Jan 2015 (Local Time) from KSTE Reporting Station
Overcast Overcast  
Wind Chill: 13°   Ceiling: 12000
Heat Index: 13°   Visibility: 10mi
Dew Point:   Wind: 0mph
Humidity: 67%   Direction: NA
Pressure: 30.03"   Gusts: NA
Location:  44.45°N, 89.28°W
Report Text: KSTE 252355Z AUTO 00000KT 10SM OVC120 M11/M16 A3003 RMK AO2 T11061156 11070 21106
Loading
Personal Weather Stations






























Interactive Weather Map New forecast layout! Learn more

10-Day Weather Forecast

Advertisements
Track Severe Weather on mobile